Hawkins, TX (75765)

7:35 AM CST on February 06, 2016 (GMT -0600)
Fouke | | Change Station
CLOSE
Current Station
Personal Weather Station
Location: Hawkins, TX
Elevation: 374 ft
Nearby Weather Stations

Elev 374 ft 32.61 °N, 95.27 °W | Updated 10 minutes ago

Overcast
Overcast
39.9 °F
Feels Like 40 °F
N
2.2
Wind Variable Wind from ESE

Today
High -- | Low -- °F
--% Chance of Precip.
Yesterday
High -- | Low -- °F
Precip. -- in
Pressure 30.30 in
Visibility 10.0 miles
Clouds Overcast 4500 ft
Windchill 40 °F
Dew Point 40 °F
Humidity 99%
Rainfall 0.18 in
Snow Depth Not available.
7:12 AM 5:58 PM
Waning Crescent, 5% visible
METAR KJXI 061315Z AUTO 00000KT 10SM OVC045 03/03 A3030 RMK AO2 T00310026
Pressure 30.30 in
Visibility 10.0 miles
Clouds Overcast 4500 ft
Windchill 40 °F
Dew Point 40 °F
Humidity 99%
Rainfall 0.18 in
Snow Depth Not available.
7:12 AM 5:58 PM
Waning Crescent, 5% visible
METAR KJXI 061315Z AUTO 00000KT 10SM OVC045 03/03 A3030 RMK AO2 T00310026

10-Day Weather Forecast

Almanac

Astronomy

Feb. 06, 2016 Rise Set
Actual Time
Civil Twilight
Nautical Twilight
Astronomical Twilight
Moon
Length of Visible Light
Length of Day
Tomorrow will be .
, % of the Moon is Illuminated

Today's Extremes

State Highs State Lows

Community

WunderPhotos

Upload Photos

1,890,971 photos uploaded!

WunderBlog® & News

Nearby

Air Quality

  Air Quality AQ Index Pollutant
Not available.

Snow Depth

Station Depth Elevation

Earthquake Activity

City Distance Mag. Time & Date
Minimum magnitude displayed is 2.5.

Coastal Water Temperatures

Place Temperature

Stations

Nearby Weather Stations

Station Location Temp. Windchill Dew Point Humidity Wind Precip. Elev Updated Type
                   

Watches & Warnings

There are currently no watches in effect.